Time;durP1;ratioP1;P1;durP2;ratioP2;P2;SDS_P1;SDS_P2;PMS_P1;PMS_P2;Temp;Humidity;BMP_temperature;BMP_pressure;BME280_temperature;BME280_humidity;BME280_pressure;Samples;Min_cycle;Max_cycle;Signal;HPM_P1;HPM_P2
2023/10/02 00:01:53;;;;;;;13.97;7.03;;;;;;;14.45;93.37;98815.31;4171695;28;20676;-89
2023/10/02 00:06:16;;;;;;;10.83;6.80;;;;;;;14.42;93.52;98816.38;4169584;28;21131;-89
2023/10/02 00:08:39;;;;;;;10.93;7.30;;;;;;;14.41;93.88;98819.94;4174100;28;20640;-89
2023/10/02 00:10:43;;;;;;;10.93;6.60;;;;;;;14.39;93.73;98826.28;4175958;28;20631;-89
2023/10/02 00:12:58;;;;;;;15.17;6.80;;;;;;;14.41;93.32;98824.38;4161075;28;20675;-89
2023/10/02 00:15:12;;;;;;;11.70;6.80;;;;;;;14.40;93.49;98820.91;4156710;28;20645;-88
2023/10/02 00:17:18;;;;;;;10.30;6.00;;;;;;;14.36;93.51;98811.56;4189287;28;21270;-88
2023/10/02 00:19:22;;;;;;;10.13;6.10;;;;;;;14.36;93.15;98816.00;4189790;28;20659;-89
2023/10/02 00:21:26;;;;;;;11.70;6.30;;;;;;;14.37;93.86;98817.66;4178281;28;21165;-89
2023/10/02 00:23:30;;;;;;;9.60;6.00;;;;;;;14.34;93.91;98816.09;4191329;28;21420;-89
2023/10/02 00:25:52;;;;;;;14.30;6.90;;;;;;;14.31;93.94;98816.31;4176096;28;20714;-89
2023/10/02 00:27:59;;;;;;;10.13;6.00;;;;;;;14.29;94.21;98812.94;4176078;28;20715;-86
2023/10/02 00:30:07;;;;;;;12.17;7.07;;;;;;;14.29;94.61;98820.81;4168942;28;20661;-86
2023/10/02 00:32:11;;;;;;;11.53;6.60;;;;;;;14.29;93.31;98820.00;4173794;28;20673;-85
2023/10/02 00:34:14;;;;;;;10.33;5.83;;;;;;;14.30;93.83;98822.50;4169710;28;21377;-85
2023/10/02 00:36:17;;;;;;;9.33;6.17;;;;;;;14.26;93.32;98817.59;4159184;28;21058;-85
2023/10/02 00:38:20;;;;;;;10.40;5.70;;;;;;;14.24;93.69;98819.50;4169527;28;20659;-85
2023/10/02 00:40:28;;;;;;;11.00;6.40;;;;;;;14.22;93.68;98821.38;4159699;28;20631;-86
2023/10/02 00:42:31;;;;;;;8.27;5.77;;;;;;;14.19;93.70;98817.19;4189319;28;21422;-85
2023/10/02 00:47:00;;;;;;;11.53;6.03;;;;;;;14.12;93.70;98820.34;4153507;28;21008;-86
2023/10/02 00:49:23;;;;;;;8.73;5.90;;;;;;;14.10;94.16;98816.97;4174811;28;20635;-85
2023/10/02 00:51:27;;;;;;;8.97;6.20;;;;;;;14.09;93.95;98815.31;4174812;28;20750;-85
2023/10/02 00:53:37;;;;;;;12.07;6.70;;;;;;;14.07;93.95;98817.19;4175833;28;20645;-85
2023/10/02 00:55:43;;;;;;;11.00;6.33;;;;;;;14.07;94.03;98814.56;4169923;28;20627;-85
2023/10/02 00:57:50;;;;;;;12.47;7.07;;;;;;;14.05;93.91;98807.78;4156335;28;20660;-85
2023/10/02 00:59:59;;;;;;;9.00;5.80;;;;;;;14.05;93.86;98810.41;4170477;28;20672;-86
2023/10/02 01:02:05;;;;;;;8.97;5.43;;;;;;;14.03;93.96;98809.66;4152359;28;20633;-85
2023/10/02 01:04:10;;;;;;;9.77;5.60;;;;;;;14.00;94.17;98805.44;4187096;28;21172;-85
2023/10/02 01:06:16;;;;;;;10.27;6.10;;;;;;;14.01;93.94;98803.66;4169432;28;20647;-86
2023/10/02 01:08:42;;;;;;;9.70;6.30;;;;;;;14.00;94.06;98805.44;4172814;28;20632;-85
2023/10/02 01:10:46;;;;;;;10.27;6.60;;;;;;;13.99;94.24;98805.56;4159841;28;20647;-85
2023/10/02 01:13:01;;;;;;;13.37;7.63;;;;;;;13.98;94.15;98806.50;4172573;28;20716;-86
2023/10/02 01:15:08;;;;;;;10.70;6.30;;;;;;;13.96;94.50;98795.28;4168986;28;20635;-85
2023/10/02 01:17:14;;;;;;;9.70;6.33;;;;;;;13.95;94.48;98802.31;4171345;28;20649;-86
2023/10/02 01:19:17;;;;;;;10.93;6.17;;;;;;;13.94;94.28;98795.38;4174713;28;21048;-85
2023/10/02 01:21:24;;;;;;;11.27;6.60;;;;;;;13.95;94.46;98797.06;4159050;28;20642;-85
2023/10/02 01:23:30;;;;;;;9.30;5.87;;;;;;;13.96;94.61;98798.72;4174964;28;21295;-85
2023/10/02 01:25:36;;;;;;;11.23;6.00;;;;;;;13.96;94.18;98800.53;4172437;28;20627;-86
2023/10/02 01:27:41;;;;;;;12.63;6.60;;;;;;;13.93;94.34;98798.94;4165241;28;20635;-85
2023/10/02 01:29:44;;;;;;;10.73;6.20;;;;;;;13.89;94.74;98794.03;4173548;28;20790;-85
2023/10/02 01:31:52;;;;;;;13.77;7.07;;;;;;;13.87;94.80;98794.13;4173146;28;20632;-85
2023/10/02 01:33:55;;;;;;;11.77;7.93;;;;;;;13.87;94.36;98785.44;4167422;28;21935;-85
2023/10/02 01:35:59;;;;;;;14.00;7.27;;;;;;;13.85;94.33;98793.41;4173196;28;20667;-85
2023/10/02 01:38:06;;;;;;;10.93;6.30;;;;;;;13.84;94.44;98791.72;4171821;28;20716;-86
2023/10/02 01:42:29;;;;;;;12.07;6.50;;;;;;;13.83;94.60;98781.34;4172161;28;20715;-85
2023/10/02 01:44:33;;;;;;;10.53;6.70;;;;;;;13.81;94.71;98786.69;4156019;28;21680;-86
2023/10/02 01:46:37;;;;;;;10.97;6.03;;;;;;;13.79;94.05;98782.53;4172670;28;20627;-86
2023/10/02 01:48:44;;;;;;;12.00;5.87;;;;;;;13.73;93.38;98789.03;4173514;28;20773;-86
2023/10/02 01:50:47;;;;;;;9.53;5.90;;;;;;;13.72;94.23;98783.88;4172015;28;20641;-85
2023/10/02 01:52:55;;;;;;;9.40;6.30;;;;;;;13.69;94.58;98782.31;4170265;28;20631;-85
2023/10/02 01:55:00;;;;;;;12.07;6.77;;;;;;;13.68;94.74;98785.03;4157617;28;21231;-86
2023/10/02 01:57:04;;;;;;;10.60;6.93;;;;;;;13.65;93.85;98783.47;4168504;28;21051;-85
2023/10/02 01:59:09;;;;;;;10.87;6.73;;;;;;;13.64;94.60;98783.59;4170748;28;20646;-86
2023/10/02 02:01:14;;;;;;;12.70;7.23;;;;;;;13.64;93.70;98783.59;4186234;28;21191;-85
2023/10/02 02:03:17;;;;;;;10.53;6.67;;;;;;;13.64;94.80;98787.03;4175873;28;20637;-85
2023/10/02 02:05:21;;;;;;;10.77;6.53;;;;;;;13.63;94.56;98786.31;4153973;28;20640;-85
2023/10/02 02:07:25;;;;;;;10.27;6.63;;;;;;;13.63;94.95;98781.06;4188937;28;20633;-86
2023/10/02 02:09:31;;;;;;;12.07;7.47;;;;;;;13.63;94.40;98784.53;4187719;28;20764;-85
2023/10/02 02:11:35;;;;;;;10.77;6.10;;;;;;;13.63;94.95;98779.28;4152314;28;20640;-85
2023/10/02 02:13:44;;;;;;;12.50;7.03;;;;;;;13.61;95.38;98783.81;4174059;28;20635;-86
2023/10/02 02:15:51;;;;;;;11.07;6.77;;;;;;;13.61;94.18;98788.22;4184817;28;20633;-86
2023/10/02 02:17:56;;;;;;;12.97;7.03;;;;;;;13.60;95.58;98789.16;4168200;28;20623;-86
2023/10/02 02:20:10;;;;;;;11.13;5.90;;;;;;;13.61;95.00;98788.22;4165338;28;20640;-86
2023/10/02 02:22:14;;;;;;;10.07;5.97;;;;;;;13.60;94.50;98789.97;4169238;28;20655;-85
2023/10/02 02:24:18;;;;;;;10.40;5.90;;;;;;;13.59;94.83;98792.69;4158827;28;20625;-85
2023/10/02 02:26:22;;;;;;;8.83;6.20;;;;;;;13.59;95.09;98792.69;4157870;28;20640;-86
2023/10/02 02:28:26;;;;;;;10.73;5.97;;;;;;;13.59;95.28;98792.69;4174359;28;21628;-86
2023/10/02 02:30:29;;;;;;;10.30;6.50;;;;;;;13.58;94.52;98786.63;4153526;28;20695;-86
2023/10/02 02:32:43;;;;;;;13.63;6.87;;;;;;;13.56;95.23;98793.78;4171809;28;20631;-85
2023/10/02 02:34:47;;;;;;;9.97;6.17;;;;;;;13.56;95.52;98795.53;4165631;28;20648;-86
2023/10/02 02:36:54;;;;;;;9.03;5.80;;;;;;;13.56;95.67;98792.91;4172609;28;20757;-85
2023/10/02 02:39:16;;;;;;;11.17;6.97;;;;;;;13.55;94.86;98796.50;4172181;28;20668;-86
2023/10/02 02:41:20;;;;;;;11.50;6.33;;;;;;;13.57;94.88;98794.59;4168832;28;20624;-85
2023/10/02 02:43:24;;;;;;;10.73;6.27;;;;;;;13.54;94.63;98797.44;4169690;28;20701;-85
2023/10/02 02:45:29;;;;;;;13.17;6.53;;;;;;;13.53;95.20;98793.13;4156321;28;20710;-86
2023/10/02 02:47:51;;;;;;;12.80;6.40;;;;;;;13.52;94.64;98797.53;4169125;28;20720;-86
2023/10/02 02:49:58;;;;;;;11.07;6.40;;;;;;;13.50;94.83;98801.19;4156198;28;20701;-85
2023/10/02 02:52:01;;;;;;;10.10;6.47;;;;;;;13.49;95.41;98797.75;4182391;28;20638;-87
2023/10/02 02:54:05;;;;;;;10.17;5.80;;;;;;;13.49;95.13;98797.75;4155475;28;20640;-85
2023/10/02 02:56:18;;;;;;;12.43;6.77;;;;;;;13.50;94.92;98793.34;4172738;28;20641;-86
2023/10/02 02:58:24;;;;;;;11.83;6.37;;;;;;;13.48;94.59;98800.47;4174665;28;20687;-86
2023/10/02 03:00:29;;;;;;;12.40;6.23;;;;;;;13.46;94.60;98805.81;4172126;28;20640;-86
2023/10/02 03:02:33;;;;;;;10.73;6.50;;;;;;;13.45;94.80;98804.13;4171770;28;20647;-86
2023/10/02 03:04:38;;;;;;;11.77;6.70;;;;;;;13.43;95.50;98803.41;4171136;28;20629;-86
2023/10/02 03:06:42;;;;;;;10.13;5.97;;;;;;;13.42;95.11;98806.97;4164356;28;21072;-85
2023/10/02 03:08:45;;;;;;;8.77;5.67;;;;;;;13.43;94.82;98797.34;4173537;28;20638;-85
2023/10/02 03:10:57;;;;;;;10.87;7.03;;;;;;;13.41;95.20;98796.59;4183447;28;20662;-85
2023/10/02 03:13:00;;;;;;;11.07;6.50;;;;;;;13.40;95.96;98793.13;4169364;28;20722;-86
2023/10/02 03:15:05;;;;;;;13.70;6.83;;;;;;;13.41;94.90;98794.81;4167939;28;20647;-86
2023/10/02 03:19:26;;;;;;;13.40;6.07;;;;;;;13.33;94.85;98797.09;4165855;28;20716;-85
2023/10/02 03:21:31;;;;;;;10.87;7.00;;;;;;;13.30;93.90;98792.06;4151476;28;20639;-86
2023/10/02 03:23:34;;;;;;;12.23;7.67;;;;;;;13.28;95.10;98788.72;4167889;28;20651;-85
2023/10/02 03:25:41;;;;;;;10.03;6.80;;;;;;;13.28;95.44;98788.72;4167830;28;20740;-86
2023/10/02 03:27:48;;;;;;;10.00;6.10;;;;;;;13.29;94.76;98800.03;4152630;28;20628;-86
2023/10/02 03:29:51;;;;;;;12.13;6.90;;;;;;;13.32;94.61;98794.59;4168498;28;20667;-86
2023/10/02 03:31:57;;;;;;;9.60;5.97;;;;;;;13.31;94.63;98793.75;4168338;28;20655;-85
2023/10/02 03:34:01;;;;;;;11.30;5.90;;;;;;;13.32;94.72;98797.22;4172098;28;20632;-87
2023/10/02 03:36:08;;;;;;;10.40;6.90;;;;;;;13.29;95.05;98798.28;4162841;28;20630;-85
2023/10/02 03:38:14;;;;;;;10.20;6.80;;;;;;;13.27;95.41;98792.28;4173060;28;20669;-85
2023/10/02 03:40:20;;;;;;;12.97;6.53;;;;;;;13.28;94.87;98799.19;4152765;28;20752;-85
2023/10/02 03:42:25;;;;;;;14.10;6.53;;;;;;;13.30;95.43;98799.09;4153031;28;20714;-85
2023/10/02 03:44:28;;;;;;;13.83;7.80;;;;;;;13.29;95.53;98800.91;4151356;28;21060;-85
2023/10/02 03:46:37;;;;;;;11.10;6.83;;;;;;;13.28;95.01;98796.59;4168928;28;20673;-86
2023/10/02 03:48:50;;;;;;;10.00;6.47;;;;;;;13.26;95.25;98790.63;4181670;28;20751;-85
2023/10/02 03:50:56;;;;;;;12.00;7.13;;;;;;;13.24;95.02;98792.50;4171465;28;20700;-86
2023/10/02 03:53:12;;;;;;;11.70;6.83;;;;;;;13.22;96.08;98791.75;4169354;28;20730;-85
2023/10/02 03:55:18;;;;;;;12.00;7.20;;;;;;;13.19;95.33;98788.53;4166690;28;21023;-85
2023/10/02 03:57:47;;;;;;;8.90;6.00;;;;;;;13.18;94.79;98788.63;4167571;28;20983;-88
2023/10/02 03:59:53;;;;;;;14.77;7.73;;;;;;;13.15;94.83;98797.50;4171706;28;21255;-88
2023/10/02 04:01:57;;;;;;;11.73;6.90;;;;;;;13.10;94.92;98786.50;4167515;28;20647;-88
2023/10/02 04:04:15;;;;;;;10.70;6.23;;;;;;;13.09;95.39;98791.84;4170827;28;20636;-88
2023/10/02 04:06:33;;;;;;;9.50;6.20;;;;;;;13.08;95.91;98791.03;4167560;28;20740;-89
2023/10/02 04:08:37;;;;;;;11.27;6.60;;;;;;;13.10;95.07;98791.75;4174967;28;20664;-89
2023/10/02 04:10:57;;;;;;;10.67;6.47;;;;;;;13.10;95.66;98790.94;4170040;28;21071;-89
2023/10/02 04:13:04;;;;;;;12.07;5.33;;;;;;;13.06;96.15;98787.66;4166877;28;20629;-89
2023/10/02 04:15:11;;;;;;;10.23;6.57;;;;;;;13.04;95.01;98792.16;4169913;28;20667;-88
2023/10/02 04:17:20;;;;;;;10.27;6.50;;;;;;;13.05;94.43;98790.38;4162832;28;21490;-88
2023/10/02 04:19:23;;;;;;;10.30;6.10;;;;;;;13.04;96.00;98793.94;4168285;28;21006;-88
2023/10/02 04:21:27;;;;;;;12.53;6.37;;;;;;;13.03;95.24;98793.09;4164774;28;20631;-89
2023/10/02 04:23:34;;;;;;;11.27;6.30;;;;;;;13.02;95.11;98793.19;4173533;28;20633;-88
2023/10/02 04:25:36;;;;;;;11.30;6.27;;;;;;;13.01;94.72;98792.38;4172137;28;20622;-88
2023/10/02 04:32:24;;;;;;;12.30;7.47;;;;;;;12.96;95.40;98802.31;4171626;28;21060;-89
2023/10/02 04:34:29;;;;;;;11.23;7.50;;;;;;;12.98;95.93;98800.44;4169119;28;21209;-88
2023/10/02 04:36:34;;;;;;;11.97;6.80;;;;;;;12.99;96.32;98796.03;4172514;28;20723;-88
2023/10/02 04:38:49;;;;;;;12.10;6.90;;;;;;;13.00;95.93;98795.09;4165706;28;20656;-89
2023/10/02 04:40:55;;;;;;;11.70;6.40;;;;;;;12.99;95.50;98791.66;4168484;28;21099;-88
2023/10/02 04:43:09;;;;;;;12.43;6.77;;;;;;;12.97;96.03;98793.50;4166866;28;21108;-89
2023/10/02 04:45:20;;;;;;;10.13;6.03;;;;;;;12.93;95.07;98801.66;4155355;28;20635;-89
2023/10/02 04:47:26;;;;;;;10.73;6.93;;;;;;;12.91;96.08;98801.75;4168487;28;20673;-88
2023/10/02 04:49:29;;;;;;;11.20;7.17;;;;;;;12.93;96.29;98801.66;4158479;28;20630;-88
2023/10/02 04:51:36;;;;;;;10.40;5.80;;;;;;;12.94;96.57;98809.41;4174093;28;20698;-89
2023/10/02 04:53:42;;;;;;;9.67;6.37;;;;;;;12.94;95.47;98809.41;4171354;28;20729;-88
2023/10/02 04:55:49;;;;;;;10.97;6.60;;;;;;;12.95;96.92;98812.91;4168103;28;21110;-89
2023/10/02 04:57:54;;;;;;;9.20;6.40;;;;;;;12.94;96.24;98798.13;4173418;28;20679;-89
2023/10/02 05:00:00;;;;;;;13.93;6.60;;;;;;;12.91;95.09;98799.16;4173929;28;21286;-88
2023/10/02 05:02:18;;;;;;;9.47;6.77;;;;;;;12.90;96.56;98796.63;4162115;28;20638;-89
2023/10/02 05:04:21;;;;;;;10.80;7.03;;;;;;;12.90;95.76;98797.50;4182605;28;20630;-88
2023/10/02 05:11:21;;;;;;;12.30;6.83;;;;;;;12.92;96.54;98800.84;4173284;28;21111;-88
2023/10/02 05:16:06;;;;;;;10.03;6.73;;;;;;;12.88;95.65;98796.72;4168236;28;21166;-89
2023/10/02 05:18:09;;;;;;;12.67;7.87;;;;;;;12.87;96.71;98800.31;4170294;28;20747;-89
2023/10/02 05:20:15;;;;;;;14.37;7.07;;;;;;;12.88;95.78;98799.34;4170978;28;20725;-89
2023/10/02 05:22:17;;;;;;;10.77;6.60;;;;;;;12.87;96.67;98808.16;4171924;28;20634;-88
2023/10/02 05:24:20;;;;;;;11.00;6.40;;;;;;;12.88;96.99;98809.00;4167227;28;20636;-89
2023/10/02 05:26:36;;;;;;;12.20;6.90;;;;;;;12.88;95.58;98803.75;4171977;28;20649;-88
2023/10/02 05:28:44;;;;;;;11.67;6.63;;;;;;;12.87;95.45;98804.69;4172656;28;20681;-90
2023/10/02 05:30:46;;;;;;;13.00;7.10;;;;;;;12.85;96.65;98803.97;4165546;28;20784;-90
2023/10/02 05:32:51;;;;;;;11.93;6.70;;;;;;;12.84;96.81;98807.53;4167706;28;20747;-88
2023/10/02 05:35:05;;;;;;;12.30;6.67;;;;;;;12.85;96.27;98811.81;4168888;28;20633;-89
2023/10/02 05:37:12;;;;;;;11.43;6.80;;;;;;;12.88;96.44;98814.22;4172251;28;20682;-89
2023/10/02 05:39:29;;;;;;;11.40;7.13;;;;;;;12.90;97.45;98810.59;4171482;28;20683;-91
2023/10/02 05:41:41;;;;;;;12.53;6.80;;;;;;;12.94;96.79;98813.81;4171020;28;21168;-88
2023/10/02 05:43:55;;;;;;;9.97;6.37;;;;;;;12.98;97.52;98812.69;4153223;28;20644;-88
2023/10/02 05:46:01;;;;;;;13.97;7.20;;;;;;;13.01;97.67;98815.09;4170183;28;20672;-88
2023/10/02 05:48:07;;;;;;;11.30;6.93;;;;;;;13.09;97.35;98811.03;4170840;28;20661;-89
2023/10/02 05:50:11;;;;;;;12.33;7.43;;;;;;;13.22;96.73;98814.50;4151366;28;20693;-88
2023/10/02 05:52:18;;;;;;;14.30;7.53;;;;;;;13.37;97.55;98823.97;4156608;28;20643;-88
2023/10/02 05:54:26;;;;;;;15.17;7.20;;;;;;;13.51;97.23;98823.84;4168335;28;21467;-88
2023/10/02 05:56:29;;;;;;;9.87;6.60;;;;;;;13.58;96.12;98823.31;4171061;28;20717;-90
2023/10/02 05:58:32;;;;;;;11.93;6.87;;;;;;;13.64;96.43;98816.84;4185025;28;20657;-87
2023/10/02 06:00:36;;;;;;;14.50;6.63;;;;;;;13.70;97.25;98832.97;4165712;28;20698;-88
2023/10/02 06:02:56;;;;;;;11.70;7.00;;;;;;;13.78;96.32;98828.84;4152799;28;20631;-88
2023/10/02 06:05:11;;;;;;;16.33;6.83;;;;;;;13.91;96.33;98829.69;4168042;28;21295;-88
2023/10/02 06:07:19;;;;;;;9.23;6.20;;;;;;;13.98;95.78;98828.34;4150607;28;20631;-88
2023/10/02 06:09:22;;;;;;;12.90;7.10;;;;;;;14.01;95.22;98830.75;4171465;28;20643;-88
2023/10/02 06:11:31;;;;;;;11.50;6.80;;;;;;;14.07;95.41;98826.88;4163333;28;21298;-88
2023/10/02 06:13:37;;;;;;;13.20;7.30;;;;;;;14.16;95.33;98832.28;4165928;28;21002;-88
2023/10/02 06:15:47;;;;;;;11.37;7.90;;;;;;;14.25;95.35;98836.88;4167481;28;20760;-90
2023/10/02 06:17:53;;;;;;;10.50;6.70;;;;;;;14.34;94.84;98841.50;4168582;28;20647;-87
2023/10/02 06:19:57;;;;;;;12.33;7.03;;;;;;;14.42;94.04;98839.19;4169795;28;21210;-85
2023/10/02 06:22:04;;;;;;;15.07;7.60;;;;;;;14.50;94.22;98840.28;4165708;28;21038;-86
2023/10/02 06:24:09;;;;;;;14.37;6.53;;;;;;;14.52;95.03;98840.16;4165269;28;20644;-86
2023/10/02 06:26:13;;;;;;;12.60;7.10;;;;;;;14.54;93.37;98833.00;4167607;28;20627;-85
2023/10/02 06:28:27;;;;;;;13.33;7.40;;;;;;;14.56;94.30;98839.00;4168029;28;20655;-86
2023/10/02 06:30:30;;;;;;;13.57;6.97;;;;;;;14.62;93.74;98836.78;4169457;28;20678;-85
2023/10/02 06:32:34;;;;;;;12.00;7.00;;;;;;;14.65;93.09;98836.56;4167019;28;20640;-86
2023/10/02 06:34:39;;;;;;;12.60;7.57;;;;;;;14.69;94.32;98844.09;4149754;28;20636;-85
2023/10/02 06:36:48;;;;;;;12.80;6.77;;;;;;;14.75;93.06;98848.06;4153924;28;21096;-86
2023/10/02 06:38:54;;;;;;;12.03;6.33;;;;;;;14.82;93.73;98850.13;4173140;28;20645;-85
2023/10/02 06:40:59;;;;;;;13.83;6.30;;;;;;;14.98;93.46;98852.47;4168248;28;20670;-86
2023/10/02 06:43:03;;;;;;;11.00;6.77;;;;;;;15.16;92.95;98854.56;4168603;28;20624;-85
2023/10/02 06:45:15;;;;;;;12.90;7.37;;;;;;;15.36;91.64;98852.16;4169473;28;20692;-85
2023/10/02 06:47:21;;;;;;;12.73;6.90;;;;;;;15.56;91.45;98856.75;4167518;28;20747;-86
2023/10/02 06:49:24;;;;;;;11.60;6.87;;;;;;;15.71;90.30;98860.81;4156164;28;20636;-84
2023/10/02 06:51:27;;;;;;;13.00;7.17;;;;;;;15.84;89.58;98858.94;4170131;28;21259;-85
2023/10/02 06:53:30;;;;;;;12.37;7.80;;;;;;;15.94;89.33;98863.38;4176439;28;20717;-85
2023/10/02 06:55:37;;;;;;;14.57;8.00;;;;;;;16.03;90.35;98860.88;4153555;28;21095;-85
2023/10/02 06:57:49;;;;;;;11.63;7.37;;;;;;;16.07;89.76;98857.06;4169173;28;21068;-86
2023/10/02 06:59:53;;;;;;;13.37;8.00;;;;;;;16.28;90.75;98865.94;4153218;28;20632;-86
2023/10/02 07:02:06;;;;;;;12.33;7.37;;;;;;;16.52;89.58;98878.00;4165336;28;20657;-85
2023/10/02 07:04:10;;;;;;;12.97;7.43;;;;;;;16.72;90.58;98877.22;4165627;28;20637;-86
2023/10/02 07:06:15;;;;;;;13.50;7.27;;;;;;;16.87;87.39;98877.78;4171728;28;20664;-85
2023/10/02 07:08:21;;;;;;;13.43;8.20;;;;;;;16.96;88.17;98879.66;4172387;28;20628;-85
2023/10/02 07:10:24;;;;;;;10.10;6.33;;;;;;;17.04;86.40;98880.72;4170023;28;21047;-86
2023/10/02 07:12:32;;;;;;;15.30;7.60;;;;;;;17.21;86.69;98880.22;4170686;28;20663;-87
2023/10/02 07:14:36;;;;;;;11.60;7.00;;;;;;;17.41;87.97;98882.91;4169777;28;20647;-87
2023/10/02 07:16:39;;;;;;;10.23;6.40;;;;;;;17.51;86.16;98879.38;4166733;28;20644;-93
2023/10/02 07:18:49;;;;;;;9.73;7.07;;;;;;;17.67;86.41;98871.81;4151943;28;20646;-90
2023/10/02 07:20:56;;;;;;;12.83;6.80;;;;;;;17.68;84.92;98870.88;4157987;28;20725;-92
2023/10/02 07:23:09;;;;;;;10.63;6.30;;;;;;;17.76;85.95;98871.03;4150538;28;20782;-91
2023/10/02 07:25:20;;;;;;;12.73;6.27;;;;;;;17.87;84.48;98870.97;4157250;28;20681;-91
2023/10/02 07:27:26;;;;;;;12.90;7.23;;;;;;;18.04;85.55;98863.28;4164889;28;20617;-86
2023/10/02 07:29:37;;;;;;;13.07;6.93;;;;;;;18.18;83.93;98864.78;4172205;28;20628;-87
2023/10/02 07:31:44;;;;;;;15.60;7.40;;;;;;;18.33;85.28;98866.06;4167421;28;21272;-87
2023/10/02 07:33:48;;;;;;;11.10;7.00;;;;;;;18.56;85.02;98869.22;4171455;28;20660;-87
2023/10/02 07:35:54;;;;;;;12.50;8.60;;;;;;;18.78;84.90;98869.00;4156392;28;20692;-88
2023/10/02 07:38:00;;;;;;;12.83;8.20;;;;;;;18.97;85.60;98864.59;4175015;28;20629;-88
2023/10/02 07:40:06;;;;;;;15.17;9.20;;;;;;;19.11;85.68;98871.28;4166254;28;20708;-87
2023/10/02 07:42:10;;;;;;;10.43;7.60;;;;;;;19.29;84.65;98866.97;4148178;28;20760;-89
2023/10/02 07:44:13;;;;;;;9.97;6.73;;;;;;;19.45;83.21;98862.78;4172034;28;20634;-90
2023/10/02 07:46:21;;;;;;;12.40;7.67;;;;;;;19.56;82.33;98865.28;4169457;28;20665;-88
2023/10/02 07:48:25;;;;;;;10.77;6.90;;;;;;;19.59;80.85;98871.16;4166114;28;21246;-89
2023/10/02 07:50:33;;;;;;;12.83;7.30;;;;;;;19.66;81.25;98866.13;4167037;28;20675;-88
2023/10/02 07:52:38;;;;;;;9.90;6.43;;;;;;;19.81;81.58;98860.22;4155080;28;20646;-91
2023/10/02 07:54:48;;;;;;;13.20;7.13;;;;;;;19.91;81.79;98855.78;4168654;28;20977;-91
2023/10/02 07:56:52;;;;;;;12.90;7.27;;;;;;;20.01;81.72;98860.09;4156290;28;20725;-95
2023/10/02 07:58:59;;;;;;;10.63;7.30;;;;;;;20.09;81.96;98860.19;4160006;28;20668;-94
2023/10/02 08:01:11;;;;;;;15.27;7.03;;;;;;;20.23;80.27;98861.53;4170516;28;21241;-96
2023/10/02 08:03:31;;;;;;;10.70;7.20;;;;;;;20.38;80.37;98860.91;4167376;28;20631;-91
2023/10/02 08:05:35;;;;;;;12.10;7.20;;;;;;;20.44;80.22;98860.31;4182589;28;20693;-93
2023/10/02 08:07:40;;;;;;;14.20;7.60;;;;;;;20.49;81.64;98861.56;4157733;28;21046;-93
2023/10/02 08:09:52;;;;;;;12.47;7.20;;;;;;;20.47;80.61;98860.03;4156018;28;20641;-94
2023/10/02 08:11:57;;;;;;;13.40;7.40;;;;;;;20.61;80.58;98859.53;4171917;28;20636;-96
2023/10/02 08:14:01;;;;;;;15.70;7.90;;;;;;;20.73;82.21;98859.22;4173201;28;20636;-90
2023/10/02 08:16:11;;;;;;;11.63;6.87;;;;;;;20.90;79.66;98859.25;4164267;28;20668;-90
2023/10/02 08:18:17;;;;;;;20.93;8.07;;;;;;;21.07;81.22;98865.56;4170048;28;20636;-93
2023/10/02 08:20:24;;;;;;;13.60;7.37;;;;;;;21.23;79.91;98861.25;4168810;28;20722;-94
2023/10/02 08:22:35;;;;;;;17.30;8.93;;;;;;;21.33;80.22;98848.72;4164075;28;20756;-91
2023/10/02 08:24:40;;;;;;;12.20;8.10;;;;;;;21.47;79.07;98857.03;4173563;28;20684;-92
2023/10/02 08:26:44;;;;;;;13.70;7.70;;;;;;;21.59;78.95;98847.81;4172993;28;20645;-89
2023/10/02 08:28:52;;;;;;;12.93;7.67;;;;;;;21.71;78.63;98851.06;4187369;28;21033;-89
2023/10/02 08:31:03;;;;;;;13.90;7.67;;;;;;;21.86;79.31;98845.00;4180945;28;20637;-92
2023/10/02 08:33:08;;;;;;;12.70;7.37;;;;;;;21.91;78.43;98848.88;4159558;28;20639;-87
2023/10/02 08:35:33;;;;;;;12.70;7.50;;;;;;;22.05;77.80;98850.94;4169436;28;21175;-88
2023/10/02 08:37:37;;;;;;;15.43;8.20;;;;;;;22.08;77.51;98855.13;4169551;28;21260;-89
2023/10/02 08:39:41;;;;;;;12.13;7.50;;;;;;;22.23;77.69;98858.91;4173605;28;20946;-85
2023/10/02 08:41:44;;;;;;;12.40;7.27;;;;;;;22.32;77.22;98856.94;4170936;28;20638;-85
2023/10/02 08:43:47;;;;;;;12.57;7.80;;;;;;;22.37;78.02;98856.47;4173522;28;20684;-86
2023/10/02 08:45:51;;;;;;;14.60;8.00;;;;;;;22.42;76.86;98849.69;4154466;28;20670;-87
2023/10/02 08:47:54;;;;;;;17.27;8.00;;;;;;;22.48;76.90;98846.41;4171838;28;21210;-85
2023/10/02 08:50:04;;;;;;;14.90;8.43;;;;;;;22.57;76.36;98848.09;4166864;28;20629;-86
2023/10/02 08:52:10;;;;;;;12.47;7.33;;;;;;;22.71;76.09;98844.00;4173883;28;20647;-85
2023/10/02 08:54:15;;;;;;;13.87;7.87;;;;;;;22.81;77.27;98838.38;4174856;28;20620;-86
2023/10/02 08:56:26;;;;;;;12.90;7.70;;;;;;;22.92;76.04;98848.69;4172657;28;21068;-86
2023/10/02 08:58:32;;;;;;;12.33;7.80;;;;;;;23.01;76.26;98844.28;4174844;28;20770;-89
2023/10/02 09:00:38;;;;;;;14.37;7.70;;;;;;;23.03;75.59;98828.97;4169601;28;20987;-86
2023/10/02 09:02:41;;;;;;;13.37;8.03;;;;;;;23.16;76.00;98835.47;4171353;28;20751;-90
2023/10/02 09:05:09;;;;;;;12.77;7.60;;;;;;;23.30;78.04;98838.34;4155865;28;20688;-87
2023/10/02 09:07:24;;;;;;;11.40;7.50;;;;;;;23.41;75.44;98831.81;4181122;28;20641;-86
2023/10/02 09:09:35;;;;;;;13.40;7.60;;;;;;;23.52;77.05;98831.50;4175253;28;21032;-87
2023/10/02 09:11:39;;;;;;;13.27;7.70;;;;;;;23.63;75.44;98831.97;4151012;28;20644;-87
2023/10/02 09:13:42;;;;;;;14.63;6.70;;;;;;;23.72;74.80;98833.69;4168686;28;20687;-87
2023/10/02 09:15:47;;;;;;;12.10;7.60;;;;;;;23.79;74.54;98826.69;4167101;28;20637;-88
2023/10/02 09:17:57;;;;;;;14.07;8.37;;;;;;;23.88;74.92;98828.34;4151451;28;20673;-86
2023/10/02 09:20:02;;;;;;;13.73;7.97;;;;;;;23.96;74.50;98825.66;4177559;28;20831;-87
2023/10/02 09:22:10;;;;;;;12.00;7.43;;;;;;;24.06;74.84;98828.97;4163188;28;21263;-86
2023/10/02 09:24:21;;;;;;;12.97;7.70;;;;;;;24.17;74.58;98830.25;4167040;28;20991;-86
2023/10/02 09:26:25;;;;;;;17.57;8.17;;;;;;;24.24;74.18;98828.56;4166190;28;20671;-88
2023/10/02 09:28:40;;;;;;;11.40;7.37;;;;;;;24.33;75.72;98827.56;4167198;28;20641;-88
2023/10/02 09:30:45;;;;;;;14.47;8.50;;;;;;;24.37;75.94;98815.56;4165521;28;21235;-88
2023/10/02 09:32:53;;;;;;;12.43;7.30;;;;;;;24.45;77.24;98823.53;4169778;28;20629;-88
2023/10/02 09:35:11;;;;;;;13.00;8.10;;;;;;;24.56;77.16;98822.31;4163908;28;21011;-88
2023/10/02 09:37:36;;;;;;;12.40;7.50;;;;;;;24.68;76.73;98821.75;4165867;28;20648;-88
2023/10/02 09:40:14;;;;;;;13.63;7.57;;;;;;;24.73;74.51;98822.06;4163089;28;20633;-88
2023/10/02 09:42:19;;;;;;;12.77;8.50;;;;;;;24.81;74.40;98816.69;4168609;28;20655;-90
2023/10/02 09:44:27;;;;;;;11.03;7.00;;;;;;;24.89;74.70;98813.97;4155583;28;21250;-87
2023/10/02 09:46:35;;;;;;;13.67;8.50;;;;;;;24.93;73.73;98818.78;4167282;28;20645;-88
2023/10/02 09:48:53;;;;;;;16.10;9.03;;;;;;;24.98;73.25;98812.91;4172114;28;21245;-88
2023/10/02 09:51:06;;;;;;;14.00;7.73;;;;;;;25.07;72.58;98815.38;4172365;28;20631;-86
2023/10/02 09:53:10;;;;;;;12.17;7.40;;;;;;;25.12;72.72;98813.00;4168402;28;20631;-87
2023/10/02 09:55:21;;;;;;;12.70;7.87;;;;;;;25.13;69.90;98799.47;4152236;28;20633;-86
2023/10/02 09:57:29;;;;;;;13.03;7.13;;;;;;;25.14;69.87;98787.78;4168273;28;20689;-87
2023/10/02 09:59:38;;;;;;;12.90;7.17;;;;;;;25.26;71.48;98804.25;4155755;28;20786;-88
2023/10/02 10:01:40;;;;;;;14.10;7.50;;;;;;;25.35;71.65;98792.44;4186745;28;20625;-88
2023/10/02 10:03:49;;;;;;;12.67;7.90;;;;;;;25.43;69.16;98790.56;4170578;28;20655;-88
2023/10/02 10:06:19;;;;;;;12.70;7.27;;;;;;;25.51;70.50;98793.16;4172094;28;20631;-88
2023/10/02 10:08:29;;;;;;;14.97;8.47;;;;;;;25.55;70.64;98783.75;4141386;28;21067;-87
2023/10/02 10:10:45;;;;;;;15.13;7.40;;;;;;;25.58;70.17;98777.25;4186309;28;21200;-88
2023/10/02 10:12:53;;;;;;;14.20;8.10;;;;;;;25.63;68.06;98781.00;4167162;28;20656;-89
2023/10/02 10:15:23;;;;;;;13.53;7.80;;;;;;;25.61;68.74;98775.03;4170025;28;20620;-88
2023/10/02 10:17:53;;;;;;;14.53;9.10;;;;;;;25.68;69.20;98773.31;4173161;28;20628;-88